sensor_id;sensor_type;location;lat;lon;timestamp;P1;durP1;ratioP1;P2;durP2;ratioP2
49764;SDS011;35657;51.204;-4.130;2023-08-17T00:01:40;7.38;;;3.67;;
49764;SDS011;35657;51.204;-4.130;2023-08-17T00:04:06;5.15;;;2.90;;
49764;SDS011;35657;51.204;-4.130;2023-08-17T00:06:32;6.40;;;2.30;;
49764;SDS011;35657;51.204;-4.130;2023-08-17T00:08:58;5.38;;;2.60;;
49764;SDS011;35657;51.204;-4.130;2023-08-17T00:11:23;5.13;;;2.33;;
49764;SDS011;35657;51.204;-4.130;2023-08-17T00:13:49;2.95;;;1.98;;
49764;SDS011;35657;51.204;-4.130;2023-08-17T00:16:15;2.85;;;2.08;;
49764;SDS011;35657;51.204;-4.130;2023-08-17T00:18:41;4.95;;;2.58;;
49764;SDS011;35657;51.204;-4.130;2023-08-17T00:21:07;3.78;;;2.47;;
49764;SDS011;35657;51.204;-4.130;2023-08-17T00:23:33;7.25;;;2.58;;
49764;SDS011;35657;51.204;-4.130;2023-08-17T00:25:59;3.95;;;2.53;;
49764;SDS011;35657;51.204;-4.130;2023-08-17T00:28:25;5.10;;;2.50;;
49764;SDS011;35657;51.204;-4.130;2023-08-17T00:30:51;6.10;;;2.72;;
49764;SDS011;35657;51.204;-4.130;2023-08-17T00:33:16;5.57;;;2.67;;
49764;SDS011;35657;51.204;-4.130;2023-08-17T00:35:42;4.90;;;2.28;;
49764;SDS011;35657;51.204;-4.130;2023-08-17T00:38:08;3.60;;;2.42;;
49764;SDS011;35657;51.204;-4.130;2023-08-17T00:40:34;3.83;;;2.42;;
49764;SDS011;35657;51.204;-4.130;2023-08-17T00:43:00;7.93;;;4.25;;
49764;SDS011;35657;51.204;-4.130;2023-08-17T00:45:25;5.68;;;2.88;;
49764;SDS011;35657;51.204;-4.130;2023-08-17T00:47:54;4.35;;;2.78;;
49764;SDS011;35657;51.204;-4.130;2023-08-17T00:50:22;6.28;;;3.45;;
49764;SDS011;35657;51.204;-4.130;2023-08-17T00:52:49;7.10;;;3.45;;
49764;SDS011;35657;51.204;-4.130;2023-08-17T00:55:15;4.47;;;2.85;;
49764;SDS011;35657;51.204;-4.130;2023-08-17T00:57:41;5.25;;;2.33;;
49764;SDS011;35657;51.204;-4.130;2023-08-17T01:00:08;4.80;;;2.65;;
49764;SDS011;35657;51.204;-4.130;2023-08-17T01:02:36;4.15;;;2.35;;
49764;SDS011;35657;51.204;-4.130;2023-08-17T01:05:03;3.83;;;2.70;;
49764;SDS011;35657;51.204;-4.130;2023-08-17T01:07:31;4.78;;;2.33;;
49764;SDS011;35657;51.204;-4.130;2023-08-17T01:09:57;3.47;;;2.00;;
49764;SDS011;35657;51.204;-4.130;2023-08-17T01:12:33;5.72;;;2.33;;
49764;SDS011;35657;51.204;-4.130;2023-08-17T01:15:13;5.07;;;2.10;;
49764;SDS011;35657;51.204;-4.130;2023-08-17T01:17:48;2.83;;;1.88;;
49764;SDS011;35657;51.204;-4.130;2023-08-17T01:20:21;3.83;;;1.70;;
49764;SDS011;35657;51.204;-4.130;2023-08-17T01:22:49;2.83;;;2.10;;
49764;SDS011;35657;51.204;-4.130;2023-08-17T01:25:16;4.90;;;2.03;;
49764;SDS011;35657;51.204;-4.130;2023-08-17T01:27:45;2.55;;;1.73;;
49764;SDS011;35657;51.204;-4.130;2023-08-17T01:30:12;3.90;;;1.65;;
49764;SDS011;35657;51.204;-4.130;2023-08-17T01:35:33;4.45;;;1.83;;
49764;SDS011;35657;51.204;-4.130;2023-08-17T01:38:09;3.67;;;1.88;;
49764;SDS011;35657;51.204;-4.130;2023-08-17T01:40:39;2.65;;;1.42;;
49764;SDS011;35657;51.204;-4.130;2023-08-17T01:43:06;2.13;;;1.45;;
49764;SDS011;35657;51.204;-4.130;2023-08-17T01:45:32;4.10;;;2.00;;
49764;SDS011;35657;51.204;-4.130;2023-08-17T01:47:58;4.13;;;1.90;;
49764;SDS011;35657;51.204;-4.130;2023-08-17T01:50:24;2.05;;;1.45;;
49764;SDS011;35657;51.204;-4.130;2023-08-17T01:52:50;5.93;;;1.90;;
49764;SDS011;35657;51.204;-4.130;2023-08-17T01:55:16;4.93;;;1.70;;
49764;SDS011;35657;51.204;-4.130;2023-08-17T01:57:42;6.40;;;2.67;;
49764;SDS011;35657;51.204;-4.130;2023-08-17T02:00:08;4.03;;;1.67;;
49764;SDS011;35657;51.204;-4.130;2023-08-17T02:02:36;2.83;;;1.83;;
49764;SDS011;35657;51.204;-4.130;2023-08-17T02:05:01;4.30;;;1.77;;
49764;SDS011;35657;51.204;-4.130;2023-08-17T02:07:28;2.47;;;1.85;;
49764;SDS011;35657;51.204;-4.130;2023-08-17T02:09:53;2.80;;;1.90;;
49764;SDS011;35657;51.204;-4.130;2023-08-17T02:12:19;2.35;;;1.60;;
49764;SDS011;35657;51.204;-4.130;2023-08-17T02:14:45;2.70;;;1.85;;
49764;SDS011;35657;51.204;-4.130;2023-08-17T02:17:10;3.38;;;2.13;;
49764;SDS011;35657;51.204;-4.130;2023-08-17T02:19:36;4.28;;;1.85;;
49764;SDS011;35657;51.204;-4.130;2023-08-17T02:22:02;6.43;;;1.92;;
49764;SDS011;35657;51.204;-4.130;2023-08-17T02:24:28;4.20;;;1.75;;
49764;SDS011;35657;51.204;-4.130;2023-08-17T02:26:54;6.22;;;2.30;;
49764;SDS011;35657;51.204;-4.130;2023-08-17T02:29:19;9.07;;;2.08;;
49764;SDS011;35657;51.204;-4.130;2023-08-17T02:31:45;3.53;;;2.08;;
49764;SDS011;35657;51.204;-4.130;2023-08-17T02:34:11;4.60;;;1.70;;
49764;SDS011;35657;51.204;-4.130;2023-08-17T02:36:36;4.47;;;2.10;;
49764;SDS011;35657;51.204;-4.130;2023-08-17T02:39:02;5.50;;;1.50;;
49764;SDS011;35657;51.204;-4.130;2023-08-17T02:41:28;2.58;;;1.67;;
49764;SDS011;35657;51.204;-4.130;2023-08-17T02:43:55;4.60;;;1.85;;
49764;SDS011;35657;51.204;-4.130;2023-08-17T02:46:21;2.70;;;1.85;;
49764;SDS011;35657;51.204;-4.130;2023-08-17T02:48:47;2.95;;;1.92;;
49764;SDS011;35657;51.204;-4.130;2023-08-17T02:51:13;2.40;;;1.50;;
49764;SDS011;35657;51.204;-4.130;2023-08-17T02:53:39;4.50;;;1.88;;
49764;SDS011;35657;51.204;-4.130;2023-08-17T02:56:04;3.08;;;1.80;;
49764;SDS011;35657;51.204;-4.130;2023-08-17T02:58:30;3.35;;;1.73;;
49764;SDS011;35657;51.204;-4.130;2023-08-17T03:00:56;3.55;;;1.55;;
49764;SDS011;35657;51.204;-4.130;2023-08-17T03:03:22;2.88;;;1.75;;
49764;SDS011;35657;51.204;-4.130;2023-08-17T03:05:47;2.88;;;1.70;;
49764;SDS011;35657;51.204;-4.130;2023-08-17T03:08:13;2.85;;;1.60;;
49764;SDS011;35657;51.204;-4.130;2023-08-17T03:10:39;2.67;;;1.75;;
49764;SDS011;35657;51.204;-4.130;2023-08-17T03:13:05;2.78;;;1.80;;
49764;SDS011;35657;51.204;-4.130;2023-08-17T03:15:30;3.30;;;1.83;;
49764;SDS011;35657;51.204;-4.130;2023-08-17T03:17:56;4.05;;;1.85;;
49764;SDS011;35657;51.204;-4.130;2023-08-17T03:20:22;4.30;;;1.65;;
49764;SDS011;35657;51.204;-4.130;2023-08-17T03:22:47;3.13;;;1.77;;
49764;SDS011;35657;51.204;-4.130;2023-08-17T03:25:13;3.45;;;1.70;;
49764;SDS011;35657;51.204;-4.130;2023-08-17T03:27:39;3.13;;;1.80;;
49764;SDS011;35657;51.204;-4.130;2023-08-17T03:30:05;2.72;;;2.00;;
49764;SDS011;35657;51.204;-4.130;2023-08-17T03:32:31;2.88;;;1.95;;
49764;SDS011;35657;51.204;-4.130;2023-08-17T03:34:57;5.75;;;2.00;;
49764;SDS011;35657;51.204;-4.130;2023-08-17T03:37:23;3.53;;;2.05;;
49764;SDS011;35657;51.204;-4.130;2023-08-17T03:39:48;4.78;;;1.80;;
49764;SDS011;35657;51.204;-4.130;2023-08-17T03:42:14;3.10;;;1.77;;
49764;SDS011;35657;51.204;-4.130;2023-08-17T03:44:40;3.42;;;1.83;;
49764;SDS011;35657;51.204;-4.130;2023-08-17T03:47:05;2.10;;;1.73;;
49764;SDS011;35657;51.204;-4.130;2023-08-17T03:49:31;4.10;;;2.30;;
49764;SDS011;35657;51.204;-4.130;2023-08-17T03:51:57;3.67;;;2.03;;
49764;SDS011;35657;51.204;-4.130;2023-08-17T03:54:23;2.30;;;2.08;;
49764;SDS011;35657;51.204;-4.130;2023-08-17T03:56:48;4.68;;;1.85;;
49764;SDS011;35657;51.204;-4.130;2023-08-17T03:59:14;3.03;;;1.67;;
49764;SDS011;35657;51.204;-4.130;2023-08-17T04:01:40;5.68;;;2.05;;
49764;SDS011;35657;51.204;-4.130;2023-08-17T04:04:05;5.35;;;2.10;;
49764;SDS011;35657;51.204;-4.130;2023-08-17T04:06:31;2.60;;;1.92;;
49764;SDS011;35657;51.204;-4.130;2023-08-17T04:08:57;5.35;;;2.10;;
49764;SDS011;35657;51.204;-4.130;2023-08-17T04:11:22;2.75;;;1.88;;
49764;SDS011;35657;51.204;-4.130;2023-08-17T04:13:48;3.00;;;2.05;;
49764;SDS011;35657;51.204;-4.130;2023-08-17T04:16:14;2.90;;;2.10;;
49764;SDS011;35657;51.204;-4.130;2023-08-17T04:18:39;3.95;;;2.08;;
49764;SDS011;35657;51.204;-4.130;2023-08-17T04:21:05;2.80;;;2.03;;
49764;SDS011;35657;51.204;-4.130;2023-08-17T04:23:31;3.30;;;1.80;;
49764;SDS011;35657;51.204;-4.130;2023-08-17T04:25:56;4.80;;;2.28;;
49764;SDS011;35657;51.204;-4.130;2023-08-17T04:28:22;4.05;;;2.10;;
49764;SDS011;35657;51.204;-4.130;2023-08-17T04:30:48;4.22;;;2.05;;
49764;SDS011;35657;51.204;-4.130;2023-08-17T04:33:13;2.38;;;1.90;;
49764;SDS011;35657;51.204;-4.130;2023-08-17T04:35:39;2.63;;;2.05;;
49764;SDS011;35657;51.204;-4.130;2023-08-17T04:38:05;6.10;;;2.28;;
49764;SDS011;35657;51.204;-4.130;2023-08-17T04:40:30;5.00;;;1.65;;
49764;SDS011;35657;51.204;-4.130;2023-08-17T04:42:57;2.33;;;1.67;;
49764;SDS011;35657;51.204;-4.130;2023-08-17T04:45:22;2.00;;;1.80;;
49764;SDS011;35657;51.204;-4.130;2023-08-17T04:47:48;2.95;;;2.08;;
49764;SDS011;35657;51.204;-4.130;2023-08-17T04:50:14;3.15;;;2.08;;
49764;SDS011;35657;51.204;-4.130;2023-08-17T04:52:44;4.28;;;2.20;;
49764;SDS011;35657;51.204;-4.130;2023-08-17T04:55:10;1.90;;;1.45;;
49764;SDS011;35657;51.204;-4.130;2023-08-17T04:57:36;2.83;;;1.92;;
49764;SDS011;35657;51.204;-4.130;2023-08-17T05:00:02;4.00;;;1.98;;
49764;SDS011;35657;51.204;-4.130;2023-08-17T05:02:28;2.97;;;2.22;;
49764;SDS011;35657;51.204;-4.130;2023-08-17T05:04:54;3.90;;;2.22;;
49764;SDS011;35657;51.204;-4.130;2023-08-17T05:07:20;5.25;;;2.15;;
49764;SDS011;35657;51.204;-4.130;2023-08-17T05:09:46;3.45;;;2.50;;
49764;SDS011;35657;51.204;-4.130;2023-08-17T05:12:11;2.63;;;2.08;;
49764;SDS011;35657;51.204;-4.130;2023-08-17T05:14:38;5.40;;;3.00;;
49764;SDS011;35657;51.204;-4.130;2023-08-17T05:17:04;2.72;;;1.85;;
49764;SDS011;35657;51.204;-4.130;2023-08-17T05:19:29;11.68;;;3.70;;
49764;SDS011;35657;51.204;-4.130;2023-08-17T05:21:55;2.92;;;1.90;;
49764;SDS011;35657;51.204;-4.130;2023-08-17T05:24:21;3.40;;;2.20;;
49764;SDS011;35657;51.204;-4.130;2023-08-17T05:26:46;3.58;;;2.13;;
49764;SDS011;35657;51.204;-4.130;2023-08-17T05:29:12;2.05;;;1.85;;
49764;SDS011;35657;51.204;-4.130;2023-08-17T05:31:38;3.88;;;2.47;;
49764;SDS011;35657;51.204;-4.130;2023-08-17T05:34:03;4.72;;;2.75;;
49764;SDS011;35657;51.204;-4.130;2023-08-17T05:36:29;4.03;;;2.15;;
49764;SDS011;35657;51.204;-4.130;2023-08-17T05:38:55;3.67;;;2.08;;
49764;SDS011;35657;51.204;-4.130;2023-08-17T05:41:20;3.55;;;2.03;;
49764;SDS011;35657;51.204;-4.130;2023-08-17T05:43:47;1.92;;;1.52;;
49764;SDS011;35657;51.204;-4.130;2023-08-17T05:46:13;7.30;;;2.00;;
49764;SDS011;35657;51.204;-4.130;2023-08-17T05:48:39;4.47;;;1.60;;
49764;SDS011;35657;51.204;-4.130;2023-08-17T05:51:06;2.40;;;1.85;;
49764;SDS011;35657;51.204;-4.130;2023-08-17T05:53:32;2.08;;;1.50;;
49764;SDS011;35657;51.204;-4.130;2023-08-17T05:55:57;2.22;;;1.77;;
49764;SDS011;35657;51.204;-4.130;2023-08-17T05:58:23;2.25;;;1.52;;
49764;SDS011;35657;51.204;-4.130;2023-08-17T06:00:49;2.70;;;1.75;;
49764;SDS011;35657;51.204;-4.130;2023-08-17T06:03:15;2.67;;;1.52;;
49764;SDS011;35657;51.204;-4.130;2023-08-17T06:05:40;2.60;;;1.90;;
49764;SDS011;35657;51.204;-4.130;2023-08-17T06:08:06;2.30;;;1.38;;
49764;SDS011;35657;51.204;-4.130;2023-08-17T06:10:32;3.25;;;1.40;;
49764;SDS011;35657;51.204;-4.130;2023-08-17T06:12:58;3.50;;;1.80;;
49764;SDS011;35657;51.204;-4.130;2023-08-17T06:15:24;2.55;;;1.77;;
49764;SDS011;35657;51.204;-4.130;2023-08-17T06:17:50;5.68;;;1.90;;
49764;SDS011;35657;51.204;-4.130;2023-08-17T06:20:16;3.08;;;1.48;;
49764;SDS011;35657;51.204;-4.130;2023-08-17T06:22:43;6.43;;;1.75;;
49764;SDS011;35657;51.204;-4.130;2023-08-17T06:25:10;1.67;;;1.25;;
49764;SDS011;35657;51.204;-4.130;2023-08-17T06:27:36;2.53;;;1.35;;
49764;SDS011;35657;51.204;-4.130;2023-08-17T06:30:03;2.55;;;1.42;;
49764;SDS011;35657;51.204;-4.130;2023-08-17T06:32:32;2.55;;;1.55;;
49764;SDS011;35657;51.204;-4.130;2023-08-17T06:34:58;2.35;;;1.45;;
49764;SDS011;35657;51.204;-4.130;2023-08-17T06:37:23;3.33;;;2.03;;
49764;SDS011;35657;51.204;-4.130;2023-08-17T06:39:49;2.03;;;1.35;;
49764;SDS011;35657;51.204;-4.130;2023-08-17T06:42:15;3.75;;;1.35;;
49764;SDS011;35657;51.204;-4.130;2023-08-17T06:44:41;3.72;;;1.63;;
49764;SDS011;35657;51.204;-4.130;2023-08-17T06:47:07;2.33;;;1.40;;
49764;SDS011;35657;51.204;-4.130;2023-08-17T06:49:32;1.58;;;1.30;;
49764;SDS011;35657;51.204;-4.130;2023-08-17T06:51:59;2.35;;;1.58;;
49764;SDS011;35657;51.204;-4.130;2023-08-17T06:54:25;1.98;;;1.52;;
49764;SDS011;35657;51.204;-4.130;2023-08-17T06:56:50;3.38;;;1.27;;
49764;SDS011;35657;51.204;-4.130;2023-08-17T06:59:16;3.20;;;1.70;;
49764;SDS011;35657;51.204;-4.130;2023-08-17T07:01:42;1.60;;;1.40;;
49764;SDS011;35657;51.204;-4.130;2023-08-17T07:04:08;2.70;;;1.50;;
49764;SDS011;35657;51.204;-4.130;2023-08-17T07:06:34;2.92;;;1.65;;
49764;SDS011;35657;51.204;-4.130;2023-08-17T07:09:00;2.35;;;1.70;;
49764;SDS011;35657;51.204;-4.130;2023-08-17T07:11:25;3.28;;;1.95;;
49764;SDS011;35657;51.204;-4.130;2023-08-17T07:13:51;2.95;;;2.05;;
49764;SDS011;35657;51.204;-4.130;2023-08-17T07:16:17;3.08;;;1.77;;
49764;SDS011;35657;51.204;-4.130;2023-08-17T07:18:44;3.78;;;1.92;;
49764;SDS011;35657;51.204;-4.130;2023-08-17T07:21:09;5.50;;;2.13;;
49764;SDS011;35657;51.204;-4.130;2023-08-17T07:23:35;3.97;;;2.00;;
49764;SDS011;35657;51.204;-4.130;2023-08-17T07:26:01;2.58;;;1.70;;
49764;SDS011;35657;51.204;-4.130;2023-08-17T07:28:26;4.30;;;2.00;;
49764;SDS011;35657;51.204;-4.130;2023-08-17T07:30:52;4.03;;;2.20;;
49764;SDS011;35657;51.204;-4.130;2023-08-17T07:33:18;3.60;;;2.15;;
49764;SDS011;35657;51.204;-4.130;2023-08-17T07:35:44;6.75;;;2.20;;
49764;SDS011;35657;51.204;-4.130;2023-08-17T07:38:09;5.57;;;2.38;;
49764;SDS011;35657;51.204;-4.130;2023-08-17T07:40:35;4.03;;;2.15;;
49764;SDS011;35657;51.204;-4.130;2023-08-17T07:43:01;6.97;;;2.20;;
49764;SDS011;35657;51.204;-4.130;2023-08-17T07:45:27;4.40;;;2.20;;
49764;SDS011;35657;51.204;-4.130;2023-08-17T07:47:52;2.78;;;1.98;;
49764;SDS011;35657;51.204;-4.130;2023-08-17T07:50:18;7.18;;;2.50;;
49764;SDS011;35657;51.204;-4.130;2023-08-17T07:52:45;4.88;;;2.40;;
49764;SDS011;35657;51.204;-4.130;2023-08-17T07:55:10;4.22;;;1.90;;
49764;SDS011;35657;51.204;-4.130;2023-08-17T07:57:36;7.55;;;2.70;;
49764;SDS011;35657;51.204;-4.130;2023-08-17T08:00:02;5.13;;;3.03;;
49764;SDS011;35657;51.204;-4.130;2023-08-17T08:02:28;5.00;;;2.90;;
49764;SDS011;35657;51.204;-4.130;2023-08-17T08:04:54;4.55;;;3.50;;
49764;SDS011;35657;51.204;-4.130;2023-08-17T08:07:20;4.05;;;2.92;;
49764;SDS011;35657;51.204;-4.130;2023-08-17T08:09:46;4.32;;;2.97;;
49764;SDS011;35657;51.204;-4.130;2023-08-17T08:12:12;6.07;;;3.40;;
49764;SDS011;35657;51.204;-4.130;2023-08-17T08:14:37;4.07;;;3.10;;
49764;SDS011;35657;51.204;-4.130;2023-08-17T08:17:03;7.32;;;3.40;;
49764;SDS011;35657;51.204;-4.130;2023-08-17T08:19:29;5.88;;;3.38;;
49764;SDS011;35657;51.204;-4.130;2023-08-17T08:21:54;8.70;;;3.97;;
49764;SDS011;35657;51.204;-4.130;2023-08-17T08:24:20;7.53;;;4.00;;
49764;SDS011;35657;51.204;-4.130;2023-08-17T08:26:46;5.82;;;4.15;;
49764;SDS011;35657;51.204;-4.130;2023-08-17T08:29:11;7.38;;;4.82;;
49764;SDS011;35657;51.204;-4.130;2023-08-17T08:31:37;11.10;;;4.60;;
49764;SDS011;35657;51.204;-4.130;2023-08-17T08:34:03;13.00;;;5.80;;
49764;SDS011;35657;51.204;-4.130;2023-08-17T08:36:28;7.97;;;5.38;;
49764;SDS011;35657;51.204;-4.130;2023-08-17T08:38:54;9.02;;;6.00;;
49764;SDS011;35657;51.204;-4.130;2023-08-17T08:41:20;11.93;;;5.93;;
49764;SDS011;35657;51.204;-4.130;2023-08-17T08:43:47;9.27;;;6.03;;
49764;SDS011;35657;51.204;-4.130;2023-08-17T08:46:13;11.00;;;6.55;;
49764;SDS011;35657;51.204;-4.130;2023-08-17T08:48:42;14.52;;;6.70;;
49764;SDS011;35657;51.204;-4.130;2023-08-17T08:51:09;21.23;;;9.27;;
49764;SDS011;35657;51.204;-4.130;2023-08-17T08:53:39;13.52;;;7.68;;
49764;SDS011;35657;51.204;-4.130;2023-08-17T08:56:13;13.77;;;9.20;;
49764;SDS011;35657;51.204;-4.130;2023-08-17T08:58:41;15.05;;;7.97;;
49764;SDS011;35657;51.204;-4.130;2023-08-17T09:01:08;16.90;;;9.32;;
49764;SDS011;35657;51.204;-4.130;2023-08-17T09:03:35;16.73;;;9.60;;
49764;SDS011;35657;51.204;-4.130;2023-08-17T09:06:02;14.02;;;9.00;;
49764;SDS011;35657;51.204;-4.130;2023-08-17T09:08:29;16.02;;;8.30;;
49764;SDS011;35657;51.204;-4.130;2023-08-17T09:10:55;18.35;;;11.00;;
49764;SDS011;35657;51.204;-4.130;2023-08-17T09:13:21;19.02;;;11.68;;
49764;SDS011;35657;51.204;-4.130;2023-08-17T09:15:47;26.20;;;11.93;;
49764;SDS011;35657;51.204;-4.130;2023-08-17T09:18:13;20.45;;;13.07;;
49764;SDS011;35657;51.204;-4.130;2023-08-17T09:23:17;23.85;;;10.50;;
49764;SDS011;35657;51.204;-4.130;2023-08-17T09:25:45;15.77;;;10.40;;
49764;SDS011;35657;51.204;-4.130;2023-08-17T09:28:18;14.93;;;9.80;;
49764;SDS011;35657;51.204;-4.130;2023-08-17T09:30:49;15.95;;;9.00;;
49764;SDS011;35657;51.204;-4.130;2023-08-17T09:35:51;20.10;;;13.15;;
49764;SDS011;35657;51.204;-4.130;2023-08-17T09:38:18;16.55;;;12.68;;
49764;SDS011;35657;51.204;-4.130;2023-08-17T09:40:44;18.95;;;13.63;;
49764;SDS011;35657;51.204;-4.130;2023-08-17T09:43:11;22.35;;;12.38;;
49764;SDS011;35657;51.204;-4.130;2023-08-17T09:45:38;18.63;;;11.10;;
49764;SDS011;35657;51.204;-4.130;2023-08-17T09:48:04;21.00;;;11.40;;
49764;SDS011;35657;51.204;-4.130;2023-08-17T09:50:33;19.88;;;13.18;;
49764;SDS011;35657;51.204;-4.130;2023-08-17T09:53:01;16.80;;;13.00;;
49764;SDS011;35657;51.204;-4.130;2023-08-17T09:55:29;16.80;;;11.68;;
49764;SDS011;35657;51.204;-4.130;2023-08-17T09:57:59;17.35;;;12.20;;
49764;SDS011;35657;51.204;-4.130;2023-08-17T10:00:25;20.15;;;12.77;;
49764;SDS011;35657;51.204;-4.130;2023-08-17T10:02:52;18.73;;;14.50;;
49764;SDS011;35657;51.204;-4.130;2023-08-17T10:05:19;21.27;;;13.93;;
49764;SDS011;35657;51.204;-4.130;2023-08-17T10:07:57;21.15;;;11.32;;
49764;SDS011;35657;51.204;-4.130;2023-08-17T10:10:26;19.77;;;13.48;;
49764;SDS011;35657;51.204;-4.130;2023-08-17T10:18:31;15.88;;;11.07;;
49764;SDS011;35657;51.204;-4.130;2023-08-17T10:21:17;20.58;;;13.75;;
49764;SDS011;35657;51.204;-4.130;2023-08-17T10:23:57;11.32;;;7.20;;
49764;SDS011;35657;51.204;-4.130;2023-08-17T10:26:23;16.95;;;9.27;;
49764;SDS011;35657;51.204;-4.130;2023-08-17T10:28:50;9.57;;;6.47;;
49764;SDS011;35657;51.204;-4.130;2023-08-17T10:31:17;13.02;;;6.03;;
49764;SDS011;35657;51.204;-4.130;2023-08-17T10:33:43;8.10;;;4.80;;
49764;SDS011;35657;51.204;-4.130;2023-08-17T10:36:11;9.43;;;5.85;;
49764;SDS011;35657;51.204;-4.130;2023-08-17T10:38:38;7.72;;;5.78;;
49764;SDS011;35657;51.204;-4.130;2023-08-17T10:41:10;9.88;;;5.55;;
49764;SDS011;35657;51.204;-4.130;2023-08-17T10:43:53;9.77;;;6.20;;
49764;SDS011;35657;51.204;-4.130;2023-08-17T10:46:32;12.80;;;6.43;;
49764;SDS011;35657;51.204;-4.130;2023-08-17T10:49:00;10.05;;;7.50;;
49764;SDS011;35657;51.204;-4.130;2023-08-17T10:51:33;8.63;;;5.40;;
49764;SDS011;35657;51.204;-4.130;2023-08-17T10:54:01;9.02;;;7.25;;
49764;SDS011;35657;51.204;-4.130;2023-08-17T10:56:29;9.73;;;6.20;;
49764;SDS011;35657;51.204;-4.130;2023-08-17T10:58:58;9.38;;;6.10;;
49764;SDS011;35657;51.204;-4.130;2023-08-17T11:01:34;7.82;;;6.13;;
49764;SDS011;35657;51.204;-4.130;2023-08-17T11:06:52;9.05;;;6.82;;
49764;SDS011;35657;51.204;-4.130;2023-08-17T11:09:27;8.25;;;7.28;;
49764;SDS011;35657;51.204;-4.130;2023-08-17T11:11:53;7.57;;;5.60;;
49764;SDS011;35657;51.204;-4.130;2023-08-17T11:14:19;9.63;;;6.93;;
49764;SDS011;35657;51.204;-4.130;2023-08-17T11:16:46;10.82;;;6.40;;
49764;SDS011;35657;51.204;-4.130;2023-08-17T11:19:12;9.48;;;6.20;;
49764;SDS011;35657;51.204;-4.130;2023-08-17T11:21:38;6.35;;;5.20;;
49764;SDS011;35657;51.204;-4.130;2023-08-17T11:24:04;8.93;;;6.88;;
49764;SDS011;35657;51.204;-4.130;2023-08-17T11:26:34;7.47;;;6.30;;
49764;SDS011;35657;51.204;-4.130;2023-08-17T11:29:01;10.05;;;5.80;;
49764;SDS011;35657;51.204;-4.130;2023-08-17T11:31:28;6.82;;;5.07;;
49764;SDS011;35657;51.204;-4.130;2023-08-17T11:33:53;6.95;;;5.30;;
49764;SDS011;35657;51.204;-4.130;2023-08-17T11:36:19;10.40;;;4.95;;
49764;SDS011;35657;51.204;-4.130;2023-08-17T11:38:47;8.75;;;4.93;;
49764;SDS011;35657;51.204;-4.130;2023-08-17T11:41:13;8.50;;;4.70;;
49764;SDS011;35657;51.204;-4.130;2023-08-17T11:43:42;5.53;;;4.30;;
49764;SDS011;35657;51.204;-4.130;2023-08-17T11:46:09;6.82;;;4.55;;
49764;SDS011;35657;51.204;-4.130;2023-08-17T11:48:35;9.75;;;4.70;;
49764;SDS011;35657;51.204;-4.130;2023-08-17T11:51:02;7.30;;;4.28;;
49764;SDS011;35657;51.204;-4.130;2023-08-17T11:53:35;6.10;;;4.60;;
49764;SDS011;35657;51.204;-4.130;2023-08-17T11:56:02;6.82;;;4.20;;
49764;SDS011;35657;51.204;-4.130;2023-08-17T11:58:41;6.60;;;4.57;;
49764;SDS011;35657;51.204;-4.130;2023-08-17T12:01:13;6.43;;;4.40;;
49764;SDS011;35657;51.204;-4.130;2023-08-17T12:03:40;8.85;;;4.72;;
49764;SDS011;35657;51.204;-4.130;2023-08-17T12:06:07;9.98;;;4.20;;
49764;SDS011;35657;51.204;-4.130;2023-08-17T12:08:33;6.50;;;3.92;;
49764;SDS011;35657;51.204;-4.130;2023-08-17T12:10:59;5.75;;;3.50;;
49764;SDS011;35657;51.204;-4.130;2023-08-17T12:13:29;5.80;;;4.28;;
49764;SDS011;35657;51.204;-4.130;2023-08-17T12:15:56;6.63;;;4.20;;
49764;SDS011;35657;51.204;-4.130;2023-08-17T12:18:24;7.90;;;4.10;;
49764;SDS011;35657;51.204;-4.130;2023-08-17T12:20:53;5.28;;;3.53;;
49764;SDS011;35657;51.204;-4.130;2023-08-17T12:23:20;9.05;;;4.88;;
49764;SDS011;35657;51.204;-4.130;2023-08-17T12:25:45;5.07;;;3.80;;
49764;SDS011;35657;51.204;-4.130;2023-08-17T12:28:16;6.35;;;4.13;;
49764;SDS011;35657;51.204;-4.130;2023-08-17T12:30:42;6.25;;;5.05;;
49764;SDS011;35657;51.204;-4.130;2023-08-17T12:33:08;6.53;;;4.07;;
49764;SDS011;35657;51.204;-4.130;2023-08-17T12:35:34;9.55;;;4.28;;
49764;SDS011;35657;51.204;-4.130;2023-08-17T12:38:00;7.55;;;3.85;;
49764;SDS011;35657;51.204;-4.130;2023-08-17T12:40:25;7.28;;;4.70;;
49764;SDS011;35657;51.204;-4.130;2023-08-17T12:42:51;6.35;;;4.32;;
49764;SDS011;35657;51.204;-4.130;2023-08-17T12:45:17;7.35;;;4.43;;
49764;SDS011;35657;51.204;-4.130;2023-08-17T12:47:43;5.63;;;3.70;;
49764;SDS011;35657;51.204;-4.130;2023-08-17T12:50:08;4.60;;;3.72;;
49764;SDS011;35657;51.204;-4.130;2023-08-17T12:52:34;5.18;;;4.35;;
49764;SDS011;35657;51.204;-4.130;2023-08-17T12:55:00;7.60;;;3.80;;
49764;SDS011;35657;51.204;-4.130;2023-08-17T12:57:26;6.20;;;4.07;;
49764;SDS011;35657;51.204;-4.130;2023-08-17T12:59:52;7.30;;;3.63;;
49764;SDS011;35657;51.204;-4.130;2023-08-17T13:02:19;7.78;;;4.15;;
49764;SDS011;35657;51.204;-4.130;2023-08-17T13:04:45;4.25;;;3.47;;
49764;SDS011;35657;51.204;-4.130;2023-08-17T13:07:11;4.28;;;3.30;;
49764;SDS011;35657;51.204;-4.130;2023-08-17T13:09:37;5.65;;;3.88;;
49764;SDS011;35657;51.204;-4.130;2023-08-17T13:12:03;5.68;;;3.80;;
49764;SDS011;35657;51.204;-4.130;2023-08-17T13:14:29;7.28;;;3.33;;
49764;SDS011;35657;51.204;-4.130;2023-08-17T13:16:54;8.40;;;3.78;;
49764;SDS011;35657;51.204;-4.130;2023-08-17T13:19:20;6.35;;;4.07;;
49764;SDS011;35657;51.204;-4.130;2023-08-17T13:21:46;5.53;;;3.40;;
49764;SDS011;35657;51.204;-4.130;2023-08-17T13:24:12;6.40;;;3.30;;
49764;SDS011;35657;51.204;-4.130;2023-08-17T13:26:38;5.25;;;3.45;;
49764;SDS011;35657;51.204;-4.130;2023-08-17T13:29:04;4.80;;;3.80;;
49764;SDS011;35657;51.204;-4.130;2023-08-17T13:31:30;4.80;;;3.80;;
49764;SDS011;35657;51.204;-4.130;2023-08-17T13:33:55;6.70;;;3.63;;
49764;SDS011;35657;51.204;-4.130;2023-08-17T13:36:21;5.28;;;3.33;;
49764;SDS011;35657;51.204;-4.130;2023-08-17T13:38:47;8.68;;;3.55;;
49764;SDS011;35657;51.204;-4.130;2023-08-17T13:41:13;6.35;;;3.25;;
49764;SDS011;35657;51.204;-4.130;2023-08-17T13:43:39;4.68;;;3.25;;
49764;SDS011;35657;51.204;-4.130;2023-08-17T13:46:05;7.13;;;3.13;;
49764;SDS011;35657;51.204;-4.130;2023-08-17T13:48:30;5.03;;;3.10;;
49764;SDS011;35657;51.204;-4.130;2023-08-17T13:50:56;8.55;;;3.22;;
49764;SDS011;35657;51.204;-4.130;2023-08-17T13:53:22;5.43;;;3.45;;
49764;SDS011;35657;51.204;-4.130;2023-08-17T13:55:48;4.47;;;3.20;;
49764;SDS011;35657;51.204;-4.130;2023-08-17T13:58:14;7.20;;;3.20;;
49764;SDS011;35657;51.204;-4.130;2023-08-17T14:00:40;6.28;;;3.10;;
49764;SDS011;35657;51.204;-4.130;2023-08-17T14:03:07;5.28;;;2.60;;
49764;SDS011;35657;51.204;-4.130;2023-08-17T14:05:33;5.70;;;3.28;;
49764;SDS011;35657;51.204;-4.130;2023-08-17T14:07:58;3.55;;;3.00;;
49764;SDS011;35657;51.204;-4.130;2023-08-17T14:10:24;3.88;;;3.42;;
49764;SDS011;35657;51.204;-4.130;2023-08-17T14:12:50;7.65;;;3.40;;
49764;SDS011;35657;51.204;-4.130;2023-08-17T14:15:16;6.35;;;3.17;;
49764;SDS011;35657;51.204;-4.130;2023-08-17T14:17:41;8.00;;;3.42;;
49764;SDS011;35657;51.204;-4.130;2023-08-17T14:20:07;8.38;;;3.60;;
49764;SDS011;35657;51.204;-4.130;2023-08-17T14:22:34;6.00;;;2.63;;
49764;SDS011;35657;51.204;-4.130;2023-08-17T14:24:59;4.47;;;2.85;;
49764;SDS011;35657;51.204;-4.130;2023-08-17T14:27:25;3.63;;;2.80;;
49764;SDS011;35657;51.204;-4.130;2023-08-17T14:29:51;5.85;;;3.20;;
49764;SDS011;35657;51.204;-4.130;2023-08-17T14:32:17;6.18;;;2.50;;
49764;SDS011;35657;51.204;-4.130;2023-08-17T14:34:42;7.47;;;3.30;;
49764;SDS011;35657;51.204;-4.130;2023-08-17T14:37:08;7.10;;;3.20;;
49764;SDS011;35657;51.204;-4.130;2023-08-17T14:39:34;5.15;;;3.13;;
49764;SDS011;35657;51.204;-4.130;2023-08-17T14:41:59;6.07;;;2.45;;
49764;SDS011;35657;51.204;-4.130;2023-08-17T14:44:25;8.60;;;3.20;;